Home   Weather   India   Kãnpur   Past weeks
Flag for India

Past Weather in Kãnpur, Uttar Pradesh, India — Yesterday and Last 2 Weeks

Currently: 84 °F. Fog. (Weather station: Lucknow / Amausi, India). See more current weather

Past Weather in Kãnpur — Graph

°F

Kãnpur Temperature Yesterday

Maximum temperature yesterday: 93 °F (at 2:30 pm)
Minimum temperature yesterday: 79 °F (at 4:30 pm)
Average temperature yesterday: 83 °F

High & Low Weather Summary for the Past Weeks

 TemperatureHumidityPressure
High93 °F (Aug 1, 4:30 pm)100% (Jul 25, 8:30 pm)29.77 "Hg (Jul 25, 8:30 pm)
Low75 °F (Jul 25, 9:30 pm)75% (Jul 24, 2:00 pm)29.42 "Hg (Aug 6, 3:30 pm)
Average84 °F90%29.60 "Hg
* Reported Jul 24 7:30 am — Aug 8 8:00 am, Kãnpur. Weather by CustomWeather, © 2022

Note: Actual official high and low records may vary slightly from our data, if they occured in-between our weather recording intervals... More about our weather records

Kãnpur Weather History for the Previous 24 Hours

Scroll right to see more
 ConditionsComfort  
Time TempWeatherWind HumidityBarometerVisibility
8:00 am
Mon, Aug 8
84 °FFog.2 mph89%29.50 "Hg2 mi
7:30 am82 °FFog.2 mph94%29.50 "Hg2 mi
6:30 am81 °FFog.2 mph94%29.50 "Hg2 mi
4:30 am79 °FFog.2 mph100%29.47 "Hg2 mi
4:00 am79 °FFog.2 mph100%29.47 "Hg2 mi
3:30 am79 °FFog.2 mph100%29.47 "Hg2 mi
3:00 am79 °FFog.2 mph100%29.50 "Hg2 mi
2:30 am79 °FFog.2 mph100%29.50 "Hg2 mi
2:00 am81 °FFog.2 mph94%29.50 "Hg2 mi
1:30 am81 °FFog.2 mph94%29.50 "Hg2 mi
1:00 am81 °FFog.2 mph94%29.50 "Hg2 mi
12:00 am81 °FFog.1 mph94%29.50 "Hg2 mi
11:30 pm
Sun, Aug 7
81 °FFog.No wind94%29.50 "Hg2 mi
11:00 pm81 °FFog.2 mph94%29.50 "Hg2 mi
10:30 pm81 °FFog.2 mph94%29.50 "Hg2 mi
10:00 pm81 °FFog.2 mph94%29.50 "Hg2 mi
9:30 pm79 °FFog.2 mph100%29.50 "Hg2 mi
9:00 pm79 °FFog.3 mph94%29.50 "Hg2 mi
8:30 pm79 °FFog.3 mph100%29.47 "Hg2 mi
8:00 pm79 °FFog.3 mph94%29.47 "Hg2 mi
7:00 pm79 °FFog.6 mph94%29.47 "Hg2 mi
6:30 pm79 °FFog.8 mph94%29.47 "Hg2 mi
6:00 pm79 °FLight rain. Broken clouds.8 mph94%29.47 "Hg2 mi
5:30 pm79 °FLight rain. More clouds than sun.7 mph100%29.47 "Hg2 mi
5:00 pm79 °FThunderstorms. More clouds than sun.9 mph100%29.47 "Hg1 mi
4:30 pm79 °FThunderstorms. More clouds than sun.10 mph100%29.47 "Hg1 mi
4:00 pm81 °FThunderstorms. More clouds than sun.12 mph94%29.47 "Hg1 mi
3:30 pm86 °FThunderstorms. Broken clouds.12 mph89%29.45 "Hg2 mi
3:00 pm93 °FBroken clouds.2 mph80%29.45 "Hg2 mi
2:30 pm93 °FBroken clouds.2 mph80%29.45 "Hg2 mi
1:00 pm90 °FFog.2 mph84%29.53 "Hg2 mi
12:30 pm90 °FFog.3 mph84%29.53 "Hg2 mi
12:00 pm90 °FFog.5 mph84%29.53 "Hg2 mi
11:30 am88 °FFog.7 mph84%29.53 "Hg2 mi
11:00 am86 °FFog.5 mph84%29.53 "Hg2 mi
10:30 am82 °FFog.7 mph89%29.56 "Hg2 mi
10:00 am82 °FFog.8 mph89%29.56 "Hg1 mi
9:30 am81 °FFog.6 mph94%29.56 "Hg1 mi
9:00 am82 °FFog.5 mph94%29.56 "Hg1 mi
Weather by CustomWeather, © 2022

See weather overview